sensor_id;sensor_type;location;lat;lon;timestamp;P1;durP1;ratioP1;P2;durP2;ratioP2
5285;SDS011;2665;53.112;7.358;2023-02-14T00:01:52;7.53;;;4.87;;
5285;SDS011;2665;53.112;7.358;2023-02-14T00:04:18;11.20;;;5.40;;
5285;SDS011;2665;53.112;7.358;2023-02-14T00:06:44;16.57;;;5.50;;
5285;SDS011;2665;53.112;7.358;2023-02-14T00:09:11;19.93;;;5.50;;
5285;SDS011;2665;53.112;7.358;2023-02-14T00:11:38;23.97;;;6.23;;
5285;SDS011;2665;53.112;7.358;2023-02-14T00:14:04;41.60;;;5.80;;
5285;SDS011;2665;53.112;7.358;2023-02-14T00:16:49;42.67;;;6.20;;
5285;SDS011;2665;53.112;7.358;2023-02-14T00:19:16;18.33;;;4.90;;
5285;SDS011;2665;53.112;7.358;2023-02-14T00:21:43;11.93;;;4.90;;
5285;SDS011;2665;53.112;7.358;2023-02-14T00:24:10;5.77;;;4.30;;
5285;SDS011;2665;53.112;7.358;2023-02-14T00:26:36;8.87;;;5.00;;
5285;SDS011;2665;53.112;7.358;2023-02-14T00:29:06;7.60;;;5.30;;
5285;SDS011;2665;53.112;7.358;2023-02-14T00:31:33;7.73;;;4.17;;
5285;SDS011;2665;53.112;7.358;2023-02-14T00:34:01;8.20;;;4.77;;
5285;SDS011;2665;53.112;7.358;2023-02-14T00:36:27;9.57;;;3.63;;
5285;SDS011;2665;53.112;7.358;2023-02-14T00:38:53;5.80;;;3.40;;
5285;SDS011;2665;53.112;7.358;2023-02-14T00:41:19;17.30;;;6.07;;
5285;SDS011;2665;53.112;7.358;2023-02-14T00:43:48;6.67;;;3.70;;
5285;SDS011;2665;53.112;7.358;2023-02-14T00:46:15;9.73;;;5.13;;
5285;SDS011;2665;53.112;7.358;2023-02-14T00:48:42;7.77;;;4.20;;
5285;SDS011;2665;53.112;7.358;2023-02-14T00:51:08;7.70;;;4.93;;
5285;SDS011;2665;53.112;7.358;2023-02-14T00:53:35;16.20;;;5.23;;
5285;SDS011;2665;53.112;7.358;2023-02-14T00:56:01;11.33;;;5.40;;
5285;SDS011;2665;53.112;7.358;2023-02-14T00:58:28;5.83;;;4.27;;
5285;SDS011;2665;53.112;7.358;2023-02-14T01:00:54;6.33;;;4.30;;
5285;SDS011;2665;53.112;7.358;2023-02-14T01:03:20;8.33;;;4.70;;
5285;SDS011;2665;53.112;7.358;2023-02-14T01:05:46;8.17;;;4.77;;
5285;SDS011;2665;53.112;7.358;2023-02-14T01:08:13;8.27;;;4.50;;
5285;SDS011;2665;53.112;7.358;2023-02-14T01:10:39;8.30;;;4.87;;
5285;SDS011;2665;53.112;7.358;2023-02-14T01:13:05;10.60;;;5.80;;
5285;SDS011;2665;53.112;7.358;2023-02-14T01:15:32;5.30;;;3.90;;
5285;SDS011;2665;53.112;7.358;2023-02-14T01:17:58;7.47;;;4.60;;
5285;SDS011;2665;53.112;7.358;2023-02-14T01:20:25;7.10;;;4.47;;
5285;SDS011;2665;53.112;7.358;2023-02-14T01:22:51;11.00;;;5.37;;
5285;SDS011;2665;53.112;7.358;2023-02-14T01:25:17;8.10;;;5.30;;
5285;SDS011;2665;53.112;7.358;2023-02-14T01:27:43;9.67;;;5.80;;
5285;SDS011;2665;53.112;7.358;2023-02-14T01:30:10;9.73;;;6.50;;
5285;SDS011;2665;53.112;7.358;2023-02-14T01:32:36;9.17;;;5.43;;
5285;SDS011;2665;53.112;7.358;2023-02-14T01:35:02;8.17;;;5.53;;
5285;SDS011;2665;53.112;7.358;2023-02-14T01:37:29;16.73;;;5.97;;
5285;SDS011;2665;53.112;7.358;2023-02-14T01:39:55;10.43;;;5.03;;
5285;SDS011;2665;53.112;7.358;2023-02-14T01:42:21;7.70;;;4.93;;
5285;SDS011;2665;53.112;7.358;2023-02-14T01:44:55;8.83;;;4.93;;
5285;SDS011;2665;53.112;7.358;2023-02-14T01:47:21;9.87;;;5.37;;
5285;SDS011;2665;53.112;7.358;2023-02-14T01:49:50;10.27;;;4.60;;
5285;SDS011;2665;53.112;7.358;2023-02-14T01:52:19;5.90;;;3.47;;
5285;SDS011;2665;53.112;7.358;2023-02-14T01:54:51;11.77;;;5.70;;
5285;SDS011;2665;53.112;7.358;2023-02-14T01:57:18;8.07;;;4.50;;
5285;SDS011;2665;53.112;7.358;2023-02-14T01:59:47;17.57;;;6.33;;
5285;SDS011;2665;53.112;7.358;2023-02-14T02:02:15;8.20;;;4.57;;
5285;SDS011;2665;53.112;7.358;2023-02-14T02:04:47;9.00;;;3.90;;
5285;SDS011;2665;53.112;7.358;2023-02-14T02:07:16;10.17;;;5.10;;
5285;SDS011;2665;53.112;7.358;2023-02-14T02:09:51;7.17;;;4.50;;
5285;SDS011;2665;53.112;7.358;2023-02-14T02:12:18;10.07;;;4.27;;
5285;SDS011;2665;53.112;7.358;2023-02-14T02:14:45;11.07;;;5.60;;
5285;SDS011;2665;53.112;7.358;2023-02-14T02:18:14;11.63;;;5.60;;
5285;SDS011;2665;53.112;7.358;2023-02-14T02:35:30;9.83;;;4.47;;
5285;SDS011;2665;53.112;7.358;2023-02-14T02:38:06;16.93;;;6.20;;
5285;SDS011;2665;53.112;7.358;2023-02-14T02:40:43;11.43;;;5.60;;
5285;SDS011;2665;53.112;7.358;2023-02-14T02:43:16;13.60;;;6.30;;
5285;SDS011;2665;53.112;7.358;2023-02-14T02:46:01;10.33;;;5.40;;
5285;SDS011;2665;53.112;7.358;2023-02-14T02:48:48;9.10;;;5.07;;
5285;SDS011;2665;53.112;7.358;2023-02-14T02:51:20;10.60;;;5.77;;
5285;SDS011;2665;53.112;7.358;2023-02-14T02:54:08;10.10;;;5.07;;
5285;SDS011;2665;53.112;7.358;2023-02-14T02:56:40;12.10;;;5.83;;
5285;SDS011;2665;53.112;7.358;2023-02-14T03:01:43;7.70;;;4.60;;
5285;SDS011;2665;53.112;7.358;2023-02-14T03:04:11;11.43;;;6.33;;
5285;SDS011;2665;53.112;7.358;2023-02-14T03:06:57;11.13;;;5.93;;
5285;SDS011;2665;53.112;7.358;2023-02-14T03:11:59;12.37;;;5.77;;
5285;SDS011;2665;53.112;7.358;2023-02-14T03:17:09;11.37;;;6.03;;
5285;SDS011;2665;53.112;7.358;2023-02-14T03:20:12;12.43;;;5.23;;
5285;SDS011;2665;53.112;7.358;2023-02-14T03:22:47;13.30;;;6.43;;
5285;SDS011;2665;53.112;7.358;2023-02-14T03:27:48;10.00;;;4.80;;
5285;SDS011;2665;53.112;7.358;2023-02-14T03:30:29;12.93;;;5.90;;
5285;SDS011;2665;53.112;7.358;2023-02-14T03:33:02;12.20;;;5.20;;
5285;SDS011;2665;53.112;7.358;2023-02-14T03:35:31;9.70;;;5.23;;
5285;SDS011;2665;53.112;7.358;2023-02-14T03:40:35;11.80;;;6.03;;
5285;SDS011;2665;53.112;7.358;2023-02-14T03:43:09;16.97;;;7.03;;
5285;SDS011;2665;53.112;7.358;2023-02-14T03:48:07;13.87;;;5.77;;
5285;SDS011;2665;53.112;7.358;2023-02-14T03:50:34;11.20;;;5.63;;
5285;SDS011;2665;53.112;7.358;2023-02-14T03:53:01;11.13;;;6.17;;
5285;SDS011;2665;53.112;7.358;2023-02-14T03:55:42;10.47;;;5.63;;
5285;SDS011;2665;53.112;7.358;2023-02-14T03:58:25;11.03;;;5.50;;
5285;SDS011;2665;53.112;7.358;2023-02-14T04:00:56;9.50;;;4.13;;
5285;SDS011;2665;53.112;7.358;2023-02-14T04:03:23;9.33;;;3.90;;
5285;SDS011;2665;53.112;7.358;2023-02-14T04:05:50;10.20;;;4.90;;
5285;SDS011;2665;53.112;7.358;2023-02-14T04:08:23;8.53;;;4.10;;
5285;SDS011;2665;53.112;7.358;2023-02-14T04:10:50;12.73;;;5.27;;
5285;SDS011;2665;53.112;7.358;2023-02-14T04:13:17;13.37;;;5.53;;
5285;SDS011;2665;53.112;7.358;2023-02-14T04:15:43;6.63;;;4.47;;
5285;SDS011;2665;53.112;7.358;2023-02-14T04:18:09;5.30;;;2.93;;
5285;SDS011;2665;53.112;7.358;2023-02-14T04:21:11;5.87;;;4.20;;
5285;SDS011;2665;53.112;7.358;2023-02-14T04:23:37;12.00;;;6.00;;
5285;SDS011;2665;53.112;7.358;2023-02-14T04:26:03;8.53;;;3.57;;
5285;SDS011;2665;53.112;7.358;2023-02-14T04:28:29;12.57;;;6.00;;
5285;SDS011;2665;53.112;7.358;2023-02-14T04:30:55;13.97;;;6.20;;
5285;SDS011;2665;53.112;7.358;2023-02-14T04:33:21;14.77;;;6.10;;
5285;SDS011;2665;53.112;7.358;2023-02-14T04:35:47;6.13;;;3.43;;
5285;SDS011;2665;53.112;7.358;2023-02-14T04:38:13;10.40;;;4.93;;
5285;SDS011;2665;53.112;7.358;2023-02-14T04:40:39;8.30;;;4.17;;
5285;SDS011;2665;53.112;7.358;2023-02-14T04:43:06;10.93;;;6.27;;
5285;SDS011;2665;53.112;7.358;2023-02-14T04:45:32;10.40;;;4.93;;
5285;SDS011;2665;53.112;7.358;2023-02-14T04:47:58;11.50;;;5.73;;
5285;SDS011;2665;53.112;7.358;2023-02-14T04:50:24;12.90;;;6.77;;
5285;SDS011;2665;53.112;7.358;2023-02-14T04:52:51;13.17;;;6.10;;
5285;SDS011;2665;53.112;7.358;2023-02-14T04:55:17;15.33;;;6.97;;
5285;SDS011;2665;53.112;7.358;2023-02-14T04:57:43;16.37;;;7.47;;
5285;SDS011;2665;53.112;7.358;2023-02-14T05:00:10;13.33;;;6.00;;
5285;SDS011;2665;53.112;7.358;2023-02-14T05:02:36;16.90;;;6.27;;
5285;SDS011;2665;53.112;7.358;2023-02-14T05:05:02;15.87;;;7.50;;
5285;SDS011;2665;53.112;7.358;2023-02-14T05:07:28;11.33;;;6.50;;
5285;SDS011;2665;53.112;7.358;2023-02-14T05:09:54;13.93;;;7.50;;
5285;SDS011;2665;53.112;7.358;2023-02-14T05:12:20;17.00;;;7.40;;
5285;SDS011;2665;53.112;7.358;2023-02-14T05:14:46;17.03;;;6.80;;
5285;SDS011;2665;53.112;7.358;2023-02-14T05:17:12;15.97;;;7.50;;
5285;SDS011;2665;53.112;7.358;2023-02-14T05:19:38;14.30;;;7.30;;
5285;SDS011;2665;53.112;7.358;2023-02-14T05:22:04;13.80;;;6.80;;
5285;SDS011;2665;53.112;7.358;2023-02-14T05:24:30;10.03;;;6.40;;
5285;SDS011;2665;53.112;7.358;2023-02-14T05:26:56;11.67;;;6.60;;
5285;SDS011;2665;53.112;7.358;2023-02-14T05:29:22;10.83;;;5.60;;
5285;SDS011;2665;53.112;7.358;2023-02-14T05:31:48;14.80;;;6.63;;
5285;SDS011;2665;53.112;7.358;2023-02-14T05:34:14;19.47;;;8.23;;
5285;SDS011;2665;53.112;7.358;2023-02-14T05:36:40;12.80;;;6.53;;
5285;SDS011;2665;53.112;7.358;2023-02-14T05:39:06;17.40;;;7.27;;
5285;SDS011;2665;53.112;7.358;2023-02-14T05:41:33;17.03;;;7.77;;
5285;SDS011;2665;53.112;7.358;2023-02-14T05:43:59;15.33;;;7.80;;
5285;SDS011;2665;53.112;7.358;2023-02-14T05:46:25;11.17;;;7.00;;
5285;SDS011;2665;53.112;7.358;2023-02-14T05:48:51;14.60;;;7.80;;
5285;SDS011;2665;53.112;7.358;2023-02-14T05:51:17;14.37;;;6.77;;
5285;SDS011;2665;53.112;7.358;2023-02-14T05:53:43;17.07;;;7.43;;
5285;SDS011;2665;53.112;7.358;2023-02-14T05:56:09;12.33;;;7.37;;
5285;SDS011;2665;53.112;7.358;2023-02-14T05:58:35;17.37;;;8.37;;
5285;SDS011;2665;53.112;7.358;2023-02-14T06:01:01;13.80;;;6.67;;
5285;SDS011;2665;53.112;7.358;2023-02-14T06:03:27;14.73;;;6.27;;
5285;SDS011;2665;53.112;7.358;2023-02-14T06:05:53;16.03;;;7.73;;
5285;SDS011;2665;53.112;7.358;2023-02-14T06:08:19;12.23;;;5.97;;
5285;SDS011;2665;53.112;7.358;2023-02-14T06:10:45;19.43;;;7.43;;
5285;SDS011;2665;53.112;7.358;2023-02-14T06:13:11;21.50;;;7.17;;
5285;SDS011;2665;53.112;7.358;2023-02-14T06:15:37;16.63;;;7.87;;
5285;SDS011;2665;53.112;7.358;2023-02-14T06:18:03;16.83;;;7.13;;
5285;SDS011;2665;53.112;7.358;2023-02-14T06:20:30;15.53;;;8.10;;
5285;SDS011;2665;53.112;7.358;2023-02-14T06:22:56;18.60;;;8.20;;
5285;SDS011;2665;53.112;7.358;2023-02-14T06:25:22;14.33;;;8.60;;
5285;SDS011;2665;53.112;7.358;2023-02-14T06:27:49;17.43;;;7.53;;
5285;SDS011;2665;53.112;7.358;2023-02-14T06:30:15;15.80;;;8.47;;
5285;SDS011;2665;53.112;7.358;2023-02-14T06:32:41;12.07;;;6.80;;
5285;SDS011;2665;53.112;7.358;2023-02-14T06:35:08;19.20;;;7.87;;
5285;SDS011;2665;53.112;7.358;2023-02-14T06:37:34;14.27;;;6.70;;
5285;SDS011;2665;53.112;7.358;2023-02-14T06:40:00;17.00;;;7.30;;
5285;SDS011;2665;53.112;7.358;2023-02-14T06:42:26;17.03;;;7.40;;
5285;SDS011;2665;53.112;7.358;2023-02-14T06:44:52;14.83;;;7.90;;
5285;SDS011;2665;53.112;7.358;2023-02-14T06:47:18;12.23;;;6.90;;
5285;SDS011;2665;53.112;7.358;2023-02-14T06:49:44;18.83;;;7.60;;
5285;SDS011;2665;53.112;7.358;2023-02-14T06:52:10;16.90;;;8.13;;
5285;SDS011;2665;53.112;7.358;2023-02-14T06:54:36;14.07;;;6.27;;
5285;SDS011;2665;53.112;7.358;2023-02-14T06:57:02;11.20;;;6.27;;
5285;SDS011;2665;53.112;7.358;2023-02-14T06:59:28;17.23;;;7.00;;
5285;SDS011;2665;53.112;7.358;2023-02-14T07:01:54;14.33;;;6.30;;
5285;SDS011;2665;53.112;7.358;2023-02-14T07:04:20;18.10;;;8.23;;
5285;SDS011;2665;53.112;7.358;2023-02-14T07:06:46;16.70;;;7.40;;
5285;SDS011;2665;53.112;7.358;2023-02-14T07:09:12;24.90;;;7.47;;
5285;SDS011;2665;53.112;7.358;2023-02-14T07:11:41;26.90;;;9.20;;
5285;SDS011;2665;53.112;7.358;2023-02-14T07:14:07;19.20;;;9.00;;
5285;SDS011;2665;53.112;7.358;2023-02-14T07:16:33;16.00;;;6.97;;
5285;SDS011;2665;53.112;7.358;2023-02-14T07:18:59;13.30;;;6.60;;
5285;SDS011;2665;53.112;7.358;2023-02-14T07:21:26;18.57;;;7.70;;
5285;SDS011;2665;53.112;7.358;2023-02-14T07:23:52;19.73;;;8.67;;
5285;SDS011;2665;53.112;7.358;2023-02-14T07:26:18;23.53;;;9.10;;
5285;SDS011;2665;53.112;7.358;2023-02-14T07:28:44;16.80;;;6.87;;
5285;SDS011;2665;53.112;7.358;2023-02-14T07:31:10;20.33;;;6.47;;
5285;SDS011;2665;53.112;7.358;2023-02-14T07:33:37;24.80;;;8.17;;
5285;SDS011;2665;53.112;7.358;2023-02-14T07:36:04;18.57;;;6.40;;
5285;SDS011;2665;53.112;7.358;2023-02-14T07:38:30;28.63;;;8.97;;
5285;SDS011;2665;53.112;7.358;2023-02-14T07:40:56;37.37;;;7.90;;
5285;SDS011;2665;53.112;7.358;2023-02-14T07:43:22;71.73;;;8.03;;
5285;SDS011;2665;53.112;7.358;2023-02-14T07:45:48;50.30;;;7.60;;
5285;SDS011;2665;53.112;7.358;2023-02-14T07:48:14;15.00;;;6.10;;
5285;SDS011;2665;53.112;7.358;2023-02-14T07:50:40;10.70;;;4.80;;
5285;SDS011;2665;53.112;7.358;2023-02-14T07:53:06;22.67;;;7.03;;
5285;SDS011;2665;53.112;7.358;2023-02-14T07:55:32;22.60;;;6.67;;
5285;SDS011;2665;53.112;7.358;2023-02-14T07:57:58;13.70;;;5.80;;
5285;SDS011;2665;53.112;7.358;2023-02-14T08:00:24;12.13;;;6.70;;
5285;SDS011;2665;53.112;7.358;2023-02-14T08:02:51;35.37;;;8.00;;
5285;SDS011;2665;53.112;7.358;2023-02-14T08:05:17;46.93;;;8.83;;
5285;SDS011;2665;53.112;7.358;2023-02-14T08:07:43;17.57;;;7.40;;
5285;SDS011;2665;53.112;7.358;2023-02-14T08:10:12;18.83;;;5.53;;
5285;SDS011;2665;53.112;7.358;2023-02-14T08:12:39;12.57;;;5.90;;
5285;SDS011;2665;53.112;7.358;2023-02-14T08:15:24;49.90;;;7.30;;
5285;SDS011;2665;53.112;7.358;2023-02-14T08:18:09;72.23;;;9.40;;
5285;SDS011;2665;53.112;7.358;2023-02-14T08:20:35;33.03;;;7.20;;
5285;SDS011;2665;53.112;7.358;2023-02-14T08:23:01;42.77;;;7.30;;
5285;SDS011;2665;53.112;7.358;2023-02-14T08:25:27;56.70;;;8.10;;
5285;SDS011;2665;53.112;7.358;2023-02-14T08:27:54;29.90;;;5.20;;
5285;SDS011;2665;53.112;7.358;2023-02-14T08:30:20;60.73;;;8.87;;
5285;SDS011;2665;53.112;7.358;2023-02-14T08:32:46;10.00;;;5.10;;
5285;SDS011;2665;53.112;7.358;2023-02-14T08:35:12;15.40;;;4.90;;
5285;SDS011;2665;53.112;7.358;2023-02-14T08:37:38;19.70;;;4.90;;
5285;SDS011;2665;53.112;7.358;2023-02-14T08:40:05;20.77;;;5.70;;
5285;SDS011;2665;53.112;7.358;2023-02-14T08:42:31;23.97;;;7.00;;
5285;SDS011;2665;53.112;7.358;2023-02-14T08:44:57;40.37;;;8.03;;
5285;SDS011;2665;53.112;7.358;2023-02-14T08:47:23;18.77;;;5.67;;
5285;SDS011;2665;53.112;7.358;2023-02-14T08:49:49;21.17;;;5.77;;
5285;SDS011;2665;53.112;7.358;2023-02-14T08:52:15;27.20;;;7.07;;
5285;SDS011;2665;53.112;7.358;2023-02-14T08:54:41;43.03;;;7.70;;
5285;SDS011;2665;53.112;7.358;2023-02-14T08:57:07;30.73;;;7.03;;
5285;SDS011;2665;53.112;7.358;2023-02-14T08:59:33;15.50;;;6.00;;
5285;SDS011;2665;53.112;7.358;2023-02-14T09:01:59;18.83;;;6.20;;
5285;SDS011;2665;53.112;7.358;2023-02-14T09:04:25;31.47;;;7.17;;
5285;SDS011;2665;53.112;7.358;2023-02-14T09:06:51;19.43;;;8.40;;
5285;SDS011;2665;53.112;7.358;2023-02-14T09:09:16;37.23;;;6.97;;
5285;SDS011;2665;53.112;7.358;2023-02-14T09:11:43;33.37;;;9.87;;
5285;SDS011;2665;53.112;7.358;2023-02-14T09:14:09;16.30;;;7.80;;
5285;SDS011;2665;53.112;7.358;2023-02-14T09:16:34;24.03;;;8.10;;
5285;SDS011;2665;53.112;7.358;2023-02-14T09:19:00;11.90;;;6.33;;
5285;SDS011;2665;53.112;7.358;2023-02-14T09:21:26;14.90;;;8.20;;
5285;SDS011;2665;53.112;7.358;2023-02-14T09:23:52;13.50;;;8.07;;
5285;SDS011;2665;53.112;7.358;2023-02-14T09:26:18;16.60;;;8.90;;
5285;SDS011;2665;53.112;7.358;2023-02-14T09:28:44;16.07;;;7.67;;
5285;SDS011;2665;53.112;7.358;2023-02-14T09:31:18;18.33;;;9.40;;
5285;SDS011;2665;53.112;7.358;2023-02-14T09:33:46;24.83;;;13.17;;
5285;SDS011;2665;53.112;7.358;2023-02-14T09:36:13;22.53;;;14.07;;
5285;SDS011;2665;53.112;7.358;2023-02-14T09:38:42;24.20;;;13.90;;
5285;SDS011;2665;53.112;7.358;2023-02-14T09:41:11;24.53;;;13.27;;
5285;SDS011;2665;53.112;7.358;2023-02-14T09:43:54;31.07;;;15.47;;
5285;SDS011;2665;53.112;7.358;2023-02-14T09:46:20;25.40;;;14.57;;
5285;SDS011;2665;53.112;7.358;2023-02-14T09:48:47;27.60;;;15.50;;
5285;SDS011;2665;53.112;7.358;2023-02-14T09:51:15;21.07;;;13.30;;
5285;SDS011;2665;53.112;7.358;2023-02-14T09:58:40;14.93;;;10.20;;
5285;SDS011;2665;53.112;7.358;2023-02-14T10:06:26;12.13;;;7.97;;
5285;SDS011;2665;53.112;7.358;2023-02-14T10:09:00;11.50;;;7.77;;
5285;SDS011;2665;53.112;7.358;2023-02-14T10:11:27;13.40;;;9.27;;
5285;SDS011;2665;53.112;7.358;2023-02-14T10:13:55;13.53;;;7.80;;
5285;SDS011;2665;53.112;7.358;2023-02-14T10:16:26;10.73;;;7.47;;
5285;SDS011;2665;53.112;7.358;2023-02-14T10:22:05;12.87;;;8.77;;
5285;SDS011;2665;53.112;7.358;2023-02-14T10:24:13;12.40;;;7.30;;
5285;SDS011;2665;53.112;7.358;2023-02-14T10:26:40;11.13;;;7.77;;
5285;SDS011;2665;53.112;7.358;2023-02-14T10:29:11;10.70;;;7.63;;
5285;SDS011;2665;53.112;7.358;2023-02-14T10:34:14;13.43;;;7.63;;
5285;SDS011;2665;53.112;7.358;2023-02-14T10:39:15;11.33;;;8.13;;
5285;SDS011;2665;53.112;7.358;2023-02-14T10:47:04;11.90;;;7.93;;
5285;SDS011;2665;53.112;7.358;2023-02-14T10:52:31;11.63;;;7.40;;
5285;SDS011;2665;53.112;7.358;2023-02-14T10:55:07;8.90;;;6.30;;
5285;SDS011;2665;53.112;7.358;2023-02-14T10:57:37;10.00;;;6.73;;
5285;SDS011;2665;53.112;7.358;2023-02-14T11:00:11;11.87;;;7.60;;
5285;SDS011;2665;53.112;7.358;2023-02-14T11:02:45;11.37;;;7.77;;
5285;SDS011;2665;53.112;7.358;2023-02-14T11:05:36;11.93;;;6.87;;
5285;SDS011;2665;53.112;7.358;2023-02-14T11:08:11;13.37;;;7.80;;
5285;SDS011;2665;53.112;7.358;2023-02-14T11:10:43;11.50;;;7.50;;
5285;SDS011;2665;53.112;7.358;2023-02-14T11:13:29;14.03;;;7.53;;
5285;SDS011;2665;53.112;7.358;2023-02-14T11:16:01;10.77;;;7.83;;
5285;SDS011;2665;53.112;7.358;2023-02-14T11:18:29;11.50;;;6.97;;
5285;SDS011;2665;53.112;7.358;2023-02-14T11:21:00;12.93;;;7.27;;
5285;SDS011;2665;53.112;7.358;2023-02-14T11:23:27;10.23;;;6.80;;
5285;SDS011;2665;53.112;7.358;2023-02-14T11:25:58;7.93;;;6.13;;
5285;SDS011;2665;53.112;7.358;2023-02-14T11:28:24;12.70;;;7.73;;
5285;SDS011;2665;53.112;7.358;2023-02-14T11:30:51;11.90;;;7.60;;
5285;SDS011;2665;53.112;7.358;2023-02-14T11:33:28;7.90;;;5.67;;
5285;SDS011;2665;53.112;7.358;2023-02-14T11:36:02;9.50;;;6.87;;
5285;SDS011;2665;53.112;7.358;2023-02-14T11:38:34;11.07;;;6.90;;
5285;SDS011;2665;53.112;7.358;2023-02-14T11:41:02;12.63;;;7.67;;
5285;SDS011;2665;53.112;7.358;2023-02-14T11:43:31;7.47;;;6.50;;
5285;SDS011;2665;53.112;7.358;2023-02-14T11:54:01;10.43;;;6.40;;
5285;SDS011;2665;53.112;7.358;2023-02-14T11:59:34;9.07;;;6.33;;
5285;SDS011;2665;53.112;7.358;2023-02-14T12:07:31;9.43;;;6.53;;
5285;SDS011;2665;53.112;7.358;2023-02-14T12:15:34;10.97;;;6.43;;
5285;SDS011;2665;53.112;7.358;2023-02-14T12:29:23;11.70;;;7.83;;
5285;SDS011;2665;53.112;7.358;2023-02-14T12:32:31;9.10;;;6.50;;
5285;SDS011;2665;53.112;7.358;2023-02-14T12:54:25;10.87;;;8.03;;
5285;SDS011;2665;53.112;7.358;2023-02-14T13:05:15;9.87;;;7.27;;
5285;SDS011;2665;53.112;7.358;2023-02-14T13:12:53;9.80;;;7.43;;
5285;SDS011;2665;53.112;7.358;2023-02-14T13:15:34;11.00;;;7.20;;
5285;SDS011;2665;53.112;7.358;2023-02-14T13:20:53;11.10;;;7.37;;
5285;SDS011;2665;53.112;7.358;2023-02-14T13:23:25;10.23;;;7.00;;
5285;SDS011;2665;53.112;7.358;2023-02-14T13:26:23;13.07;;;7.47;;
5285;SDS011;2665;53.112;7.358;2023-02-14T13:29:03;9.70;;;6.60;;
5285;SDS011;2665;53.112;7.358;2023-02-14T13:31:37;9.20;;;6.70;;
5285;SDS011;2665;53.112;7.358;2023-02-14T13:34:07;10.03;;;7.40;;
5285;SDS011;2665;53.112;7.358;2023-02-14T13:36:42;9.40;;;7.40;;
5285;SDS011;2665;53.112;7.358;2023-02-14T13:39:09;10.37;;;7.30;;
5285;SDS011;2665;53.112;7.358;2023-02-14T13:41:48;9.60;;;7.13;;
5285;SDS011;2665;53.112;7.358;2023-02-14T13:44:40;10.90;;;7.53;;
5285;SDS011;2665;53.112;7.358;2023-02-14T13:47:03;12.73;;;8.17;;
5285;SDS011;2665;53.112;7.358;2023-02-14T13:49:39;12.77;;;7.63;;
5285;SDS011;2665;53.112;7.358;2023-02-14T13:52:12;12.73;;;8.17;;
5285;SDS011;2665;53.112;7.358;2023-02-14T13:55:02;9.47;;;7.17;;
5285;SDS011;2665;53.112;7.358;2023-02-14T13:57:32;10.27;;;7.20;;
5285;SDS011;2665;53.112;7.358;2023-02-14T14:02:51;9.83;;;6.93;;
5285;SDS011;2665;53.112;7.358;2023-02-14T14:05:43;10.77;;;8.00;;
5285;SDS011;2665;53.112;7.358;2023-02-14T14:10:48;11.03;;;7.90;;
5285;SDS011;2665;53.112;7.358;2023-02-14T14:18:55;14.30;;;8.00;;
5285;SDS011;2665;53.112;7.358;2023-02-14T14:21:58;10.63;;;7.60;;
5285;SDS011;2665;53.112;7.358;2023-02-14T14:24:34;8.87;;;7.67;;
5285;SDS011;2665;53.112;7.358;2023-02-14T14:29:45;12.40;;;8.23;;
5285;SDS011;2665;53.112;7.358;2023-02-14T14:34:51;9.80;;;7.37;;
5285;SDS011;2665;53.112;7.358;2023-02-14T14:37:23;13.63;;;8.50;;
5285;SDS011;2665;53.112;7.358;2023-02-14T14:39:52;10.43;;;7.47;;
5285;SDS011;2665;53.112;7.358;2023-02-14T14:42:29;12.73;;;8.33;;
5285;SDS011;2665;53.112;7.358;2023-02-14T14:45:02;12.77;;;8.60;;
5285;SDS011;2665;53.112;7.358;2023-02-14T14:47:35;11.00;;;8.03;;
5285;SDS011;2665;53.112;7.358;2023-02-14T14:50:06;11.97;;;7.63;;
5285;SDS011;2665;53.112;7.358;2023-02-14T14:52:53;11.40;;;7.20;;
5285;SDS011;2665;53.112;7.358;2023-02-14T14:55:23;12.87;;;8.20;;
5285;SDS011;2665;53.112;7.358;2023-02-14T14:57:55;15.50;;;7.63;;
5285;SDS011;2665;53.112;7.358;2023-02-14T15:02:55;15.50;;;7.80;;
5285;SDS011;2665;53.112;7.358;2023-02-14T15:05:35;12.50;;;8.43;;
5285;SDS011;2665;53.112;7.358;2023-02-14T15:13:18;10.63;;;7.70;;
5285;SDS011;2665;53.112;7.358;2023-02-14T15:16:22;10.13;;;7.87;;
5285;SDS011;2665;53.112;7.358;2023-02-14T15:18:49;11.93;;;7.40;;
5285;SDS011;2665;53.112;7.358;2023-02-14T15:21:17;10.50;;;7.67;;
5285;SDS011;2665;53.112;7.358;2023-02-14T15:23:43;10.77;;;8.00;;
5285;SDS011;2665;53.112;7.358;2023-02-14T15:26:43;9.50;;;7.23;;
5285;SDS011;2665;53.112;7.358;2023-02-14T15:29:02;10.27;;;7.10;;
5285;SDS011;2665;53.112;7.358;2023-02-14T15:31:37;12.07;;;7.77;;
5285;SDS011;2665;53.112;7.358;2023-02-14T15:34:05;12.00;;;8.13;;
5285;SDS011;2665;53.112;7.358;2023-02-14T15:36:31;15.20;;;8.20;;
5285;SDS011;2665;53.112;7.358;2023-02-14T15:38:59;12.83;;;7.63;;
5285;SDS011;2665;53.112;7.358;2023-02-14T15:41:27;11.47;;;7.40;;
5285;SDS011;2665;53.112;7.358;2023-02-14T15:43:54;11.07;;;8.30;;
5285;SDS011;2665;53.112;7.358;2023-02-14T15:49:04;13.67;;;8.00;;
5285;SDS011;2665;53.112;7.358;2023-02-14T15:51:32;10.67;;;8.10;;
5285;SDS011;2665;53.112;7.358;2023-02-14T15:54:06;11.47;;;7.30;;
5285;SDS011;2665;53.112;7.358;2023-02-14T15:56:44;11.73;;;6.87;;
5285;SDS011;2665;53.112;7.358;2023-02-14T15:59:17;12.47;;;8.07;;
5285;SDS011;2665;53.112;7.358;2023-02-14T16:04:49;10.67;;;6.77;;
5285;SDS011;2665;53.112;7.358;2023-02-14T16:09:46;8.30;;;6.43;;
5285;SDS011;2665;53.112;7.358;2023-02-14T16:12:27;11.00;;;7.90;;
5285;SDS011;2665;53.112;7.358;2023-02-14T16:15:09;13.50;;;7.20;;
5285;SDS011;2665;53.112;7.358;2023-02-14T16:17:43;8.60;;;6.30;;
5285;SDS011;2665;53.112;7.358;2023-02-14T16:23:12;12.10;;;7.37;;
5285;SDS011;2665;53.112;7.358;2023-02-14T16:25:39;9.43;;;6.00;;
5285;SDS011;2665;53.112;7.358;2023-02-14T16:28:05;10.20;;;6.60;;
5285;SDS011;2665;53.112;7.358;2023-02-14T16:30:31;11.70;;;7.37;;
5285;SDS011;2665;53.112;7.358;2023-02-14T16:32:56;8.80;;;6.43;;
5285;SDS011;2665;53.112;7.358;2023-02-14T16:35:22;12.43;;;7.13;;
5285;SDS011;2665;53.112;7.358;2023-02-14T16:37:49;10.37;;;6.30;;
5285;SDS011;2665;53.112;7.358;2023-02-14T16:40:15;10.83;;;6.30;;
5285;SDS011;2665;53.112;7.358;2023-02-14T16:42:43;9.53;;;6.00;;
5285;SDS011;2665;53.112;7.358;2023-02-14T16:45:16;8.00;;;6.13;;
5285;SDS011;2665;53.112;7.358;2023-02-14T16:47:44;9.80;;;5.33;;
5285;SDS011;2665;53.112;7.358;2023-02-14T16:50:10;9.50;;;5.70;;
5285;SDS011;2665;53.112;7.358;2023-02-14T16:52:36;9.53;;;5.97;;
5285;SDS011;2665;53.112;7.358;2023-02-14T16:55:03;9.50;;;5.87;;
5285;SDS011;2665;53.112;7.358;2023-02-14T16:57:34;9.37;;;5.37;;
5285;SDS011;2665;53.112;7.358;2023-02-14T17:00:05;9.70;;;5.67;;
5285;SDS011;2665;53.112;7.358;2023-02-14T17:02:33;10.23;;;5.60;;
5285;SDS011;2665;53.112;7.358;2023-02-14T17:04:59;7.10;;;5.10;;
5285;SDS011;2665;53.112;7.358;2023-02-14T17:07:25;9.73;;;5.77;;
5285;SDS011;2665;53.112;7.358;2023-02-14T17:09:53;9.53;;;5.90;;
5285;SDS011;2665;53.112;7.358;2023-02-14T17:12:23;9.60;;;5.40;;
5285;SDS011;2665;53.112;7.358;2023-02-14T17:14:53;7.50;;;5.67;;
5285;SDS011;2665;53.112;7.358;2023-02-14T17:17:22;10.10;;;6.07;;
5285;SDS011;2665;53.112;7.358;2023-02-14T17:19:48;11.60;;;6.30;;
5285;SDS011;2665;53.112;7.358;2023-02-14T17:22:14;11.13;;;6.10;;
5285;SDS011;2665;53.112;7.358;2023-02-14T17:24:40;7.67;;;5.10;;
5285;SDS011;2665;53.112;7.358;2023-02-14T17:27:06;9.27;;;6.10;;
5285;SDS011;2665;53.112;7.358;2023-02-14T17:29:32;9.53;;;5.03;;
5285;SDS011;2665;53.112;7.358;2023-02-14T17:31:58;11.03;;;5.83;;
5285;SDS011;2665;53.112;7.358;2023-02-14T17:34:23;7.70;;;5.20;;
5285;SDS011;2665;53.112;7.358;2023-02-14T17:36:49;9.27;;;5.63;;
5285;SDS011;2665;53.112;7.358;2023-02-14T17:39:16;10.60;;;5.30;;
5285;SDS011;2665;53.112;7.358;2023-02-14T17:41:42;10.70;;;6.60;;
5285;SDS011;2665;53.112;7.358;2023-02-14T17:44:09;11.27;;;5.63;;
5285;SDS011;2665;53.112;7.358;2023-02-14T17:46:36;10.30;;;6.40;;
5285;SDS011;2665;53.112;7.358;2023-02-14T17:49:02;12.03;;;5.67;;
5285;SDS011;2665;53.112;7.358;2023-02-14T17:51:27;10.30;;;5.70;;
5285;SDS011;2665;53.112;7.358;2023-02-14T17:53:53;12.67;;;6.33;;
5285;SDS011;2665;53.112;7.358;2023-02-14T17:56:20;9.43;;;5.90;;
5285;SDS011;2665;53.112;7.358;2023-02-14T17:58:48;11.27;;;7.17;;
5285;SDS011;2665;53.112;7.358;2023-02-14T18:01:16;10.43;;;6.60;;